Aérodrome :







RETROUVEZ-NOUS SUR...

 
LOGIN :

S'inscrire | Disclaimer

   EN    FR    IT 

 









Légende :    VFR   VFR Marginal   IFR   IFR Intensif   IFR Très Intensif
Visi : 
Plafond : 
>= 8 km
>= 3000ft
5 à 8 km
1000 à 3000 ft
1500m à 5 km
500 à 1000 ft
800 à 1500m
200 à 500 ft
< 800m
< 200 ft
Symboles :   Orages  Brouillard  Fortes neiges  Fortes précipitations  Vent > 20 kt






- Altitude de l'aérodrome : 171 ft
- Code IATA : KEF


BIKF - Keflavik International

DERNIER METAR :
  • 261530Z 07015KT CAVOK M02/M10 Q0994

METARs EXPIRÉS :
  • 261500Z 05014KT CAVOK M02/M09 Q0994
  • 261430Z 06016KT CAVOK M02/M09 Q0994
  • 261400Z 05012KT CAVOK M02/M10 Q0994
  • 261330Z 05012KT CAVOK M01/M09 Q0994
  • 261300Z 05013KT CAVOK M02/M09 Q0994

TAF TAF BIKF
Valide du 26 à 15h jusqu'au 27 à 15h UTC


261333Z 2615/2715 06015KT CAVOK TXM01/2615Z TNM04/2621Z
BECMG 2623/2701 09018G28KT 9999 SCT018 BKN027
PROB40
TEMPO 2702/2715 1000 SHSN BKN007
BECMG 2710/2712 09028G38KT



MET'MAP, la Météo Aéronautique d'un coup d'oeil ! - Copyright ORBIFLY Décembre 2007 - Disclaimer

ORBIFLY MET'MAP TEAM :

Programmation & Développement : Alexandra Zaïnal
Sur une idée originale de : Baudouin d'Aumeries
Assistance à la programmation : Marc-Olivier Méhu
Soutien technique & logistique : Manuel Goepfert

Contact : metmap@orbifly.com




SOURCES & CREDITS :

   NOAA